createdAt,value
2019-01-13T00:01:32.483Z,13.93
2019-01-13T00:04:42.793Z,14.38
2019-01-13T00:07:15.601Z,14.09
2019-01-13T00:12:51.539Z,13.94
2019-01-13T00:15:25.143Z,13.99
2019-01-13T00:17:56.264Z,14.03
2019-01-13T00:21:08.369Z,13.89
2019-01-13T00:23:40.383Z,13.97
2019-01-13T00:26:32.461Z,13.91
2019-01-13T00:32:26.810Z,13.93
2019-01-13T00:34:58.334Z,13.85
2019-01-13T00:37:33.199Z,13.91
2019-01-13T00:40:36.055Z,13.84
2019-01-13T00:42:56.853Z,14.05
2019-01-13T00:49:12.918Z,14.04
2019-01-13T00:52:04.993Z,13.74
2019-01-13T00:54:38.240Z,13.78
2019-01-13T01:00:28.868Z,13.86
2019-01-13T01:03:19.003Z,13.85
2019-01-13T01:05:53.902Z,13.86
2019-01-13T01:08:44.113Z,13.84
2019-01-13T01:14:39.723Z,13.76
2019-01-13T01:17:11.541Z,13.76
2019-01-13T01:20:03.610Z,13.75
2019-01-13T01:22:39.608Z,13.72
2019-01-13T01:25:14.131Z,13.90
2019-01-13T01:27:45.244Z,13.63
2019-01-13T01:30:57.158Z,13.72
2019-01-13T01:36:28.688Z,13.50
2019-01-13T01:57:43.609Z,12.83
2019-01-13T02:00:40.319Z,12.96
2019-01-13T02:03:07.463Z,13.05
2019-01-13T02:05:57.516Z,13.05
2019-01-13T02:08:47.620Z,12.98
2019-01-13T02:11:37.460Z,12.82
2019-01-13T02:14:28.101Z,12.68
2019-01-13T02:17:00.394Z,12.58
2019-01-13T02:19:32.748Z,12.75
2019-01-13T02:22:22.890Z,13.12
2019-01-13T02:24:54.027Z,13.31
2019-01-13T02:27:38.073Z,13.20
2019-01-13T02:30:00.273Z,13.29
2019-01-13T02:32:51.179Z,13.45
2019-01-13T02:35:22.592Z,13.35
2019-01-13T02:37:53.737Z,13.34
2019-01-13T02:44:03.947Z,13.32
2019-01-13T02:46:55.268Z,13.49
2019-01-13T02:58:01.967Z,13.30
2019-01-13T03:00:46.201Z,13.48
2019-01-13T03:03:25.655Z,13.44
2019-01-13T03:05:56.699Z,13.48
2019-01-13T03:08:46.375Z,13.36
2019-01-13T03:14:20.093Z,13.14
2019-01-13T03:16:52.012Z,13.32
2019-01-13T03:19:23.117Z,13.20
2019-01-13T03:21:54.643Z,13.26
2019-01-13T03:27:28.950Z,13.15
2019-01-13T03:33:01.769Z,13.31
2019-01-13T03:35:32.935Z,13.56
2019-01-13T03:38:04.057Z,13.43
2019-01-13T03:40:55.532Z,13.32
2019-01-13T03:43:48.031Z,13.30
2019-01-13T03:46:57.345Z,13.27
2019-01-13T03:50:08.690Z,13.38
2019-01-13T03:53:21.636Z,13.63
2019-01-13T03:56:15.212Z,13.44
2019-01-13T03:59:09.143Z,13.42
2019-01-13T04:02:04.524Z,13.52
2019-01-13T04:04:54.521Z,13.42
2019-01-13T04:07:45.410Z,13.78
2019-01-13T04:10:46.916Z,13.74
2019-01-13T04:13:40.041Z,13.69
2019-01-13T04:19:56.934Z,13.89
2019-01-13T04:22:47.195Z,14.12
2019-01-13T04:26:09.037Z,13.92
2019-01-13T04:28:50.518Z,14.00
2019-01-13T04:32:03.337Z,13.85
2019-01-13T04:38:25.595Z,14.04
2019-01-13T04:41:16.234Z,13.98
2019-01-13T04:43:46.485Z,13.95
2019-01-13T04:49:39.308Z,14.04
2019-01-13T04:52:29.371Z,14.03
2019-01-13T04:55:18.290Z,13.88
2019-01-13T04:58:21.642Z,14.00
2019-01-13T05:01:13.593Z,13.83
2019-01-13T05:04:14.411Z,13.68
2019-01-13T05:06:56.901Z,13.67
2019-01-13T05:15:43.346Z,13.64
2019-01-13T05:18:16.682Z,13.64
2019-01-13T05:24:24.921Z,13.62
2019-01-13T05:27:15.764Z,13.71
2019-01-13T05:29:47.818Z,13.72
2019-01-13T05:38:56.471Z,13.63
2019-01-13T05:41:28.417Z,13.80
2019-01-13T05:44:17.602Z,14.03
2019-01-13T05:46:47.728Z,13.98
2019-01-13T05:49:18.947Z,13.85
2019-01-13T05:51:49.983Z,13.76
2019-01-13T05:54:21.090Z,13.96
2019-01-13T05:57:11.380Z,14.04
2019-01-13T06:02:51.341Z,14.18
2019-01-13T06:05:23.335Z,14.28
2019-01-13T06:08:12.450Z,14.18
2019-01-13T06:13:53.037Z,14.17
2019-01-13T06:16:24.147Z,14.35
2019-01-13T06:18:55.292Z,14.08
2019-01-13T06:21:45.354Z,13.95
2019-01-13T06:24:15.577Z,13.92
2019-01-13T06:26:46.626Z,13.85
2019-01-13T06:29:35.741Z,14.03
2019-01-13T06:32:17.219Z,14.10
2019-01-13T06:35:07.252Z,13.90
2019-01-13T06:37:50.379Z,13.94
2019-01-13T06:43:38.595Z,13.70
2019-01-13T06:46:27.803Z,13.54
2019-01-13T06:51:58.376Z,13.68
2019-01-13T06:54:29.509Z,13.57
2019-01-13T06:57:00.550Z,13.68
2019-01-13T06:59:31.694Z,13.63
2019-01-13T07:02:03.497Z,13.39
2019-01-13T07:04:35.882Z,13.51
2019-01-13T07:07:06.099Z,13.64
2019-01-13T07:09:37.238Z,13.53
2019-01-13T07:12:08.231Z,13.75
2019-01-13T07:14:40.148Z,13.75
2019-01-13T07:17:11.260Z,13.81
2019-01-13T07:20:01.321Z,13.69
2019-01-13T07:25:35.796Z,13.68
2019-01-13T07:28:05.992Z,13.80
2019-01-13T07:30:37.988Z,13.85
2019-01-13T07:33:09.055Z,13.96
2019-01-13T07:35:40.162Z,14.09
2019-01-13T07:38:30.731Z,14.09
2019-01-13T07:41:02.235Z,14.00
2019-01-13T07:43:33.292Z,13.99
2019-01-13T07:46:24.190Z,13.95
2019-01-13T07:48:55.279Z,14.04
2019-01-13T07:51:25.449Z,13.88
2019-01-13T07:54:27.701Z,13.77
2019-01-13T07:56:49.219Z,13.83
2019-01-13T08:05:13.490Z,13.99
2019-01-13T08:07:44.555Z,13.97
2019-01-13T08:10:15.524Z,14.02
2019-01-13T08:13:06.485Z,13.91
2019-01-13T08:15:56.534Z,13.94
2019-01-13T08:18:46.670Z,13.94
2019-01-13T08:21:17.870Z,13.89
2019-01-13T08:23:48.927Z,13.74
2019-01-13T08:26:39.906Z,13.73
2019-01-13T08:29:29.723Z,13.63
2019-01-13T08:32:24.938Z,13.78
2019-01-13T08:34:52.591Z,13.69
2019-01-13T08:37:43.849Z,13.48
2019-01-13T08:40:17.848Z,13.48
2019-01-13T08:43:07.982Z,13.42
2019-01-13T08:45:42.153Z,13.42
2019-01-13T08:51:16.635Z,13.51
2019-01-13T08:54:08.030Z,13.38
2019-01-13T08:56:40.049Z,13.49
2019-01-13T08:59:31.041Z,13.46
2019-01-13T09:02:21.944Z,13.61
2019-01-13T09:04:53.391Z,13.70
2019-01-13T09:07:43.208Z,13.72
2019-01-13T09:10:33.325Z,13.69
2019-01-13T09:13:43.077Z,13.68
2019-01-13T09:16:34.028Z,13.90
2019-01-13T09:22:26.019Z,13.83
2019-01-13T09:25:22.221Z,13.86
2019-01-13T09:28:12.307Z,13.73
2019-01-13T09:31:02.473Z,13.71
2019-01-13T09:33:53.834Z,13.78
2019-01-13T09:36:24.977Z,13.79
2019-01-13T09:38:56.072Z,13.77
2019-01-13T09:41:47.007Z,13.72
2019-01-13T09:44:20.449Z,13.76
2019-01-13T09:46:51.525Z,13.70
2019-01-13T09:49:41.724Z,13.67
2019-01-13T09:55:34.025Z,13.99
2019-01-13T09:58:05.242Z,14.02
2019-01-13T10:00:46.309Z,14.15
2019-01-13T10:03:17.386Z,14.25
2019-01-13T10:05:50.044Z,14.18
2019-01-13T10:08:22.009Z,14.16
2019-01-13T10:20:44.595Z,14.21
2019-01-13T10:26:28.620Z,14.24
2019-01-13T10:29:06.587Z,14.09
2019-01-13T10:34:50.941Z,14.05
2019-01-13T10:40:27.674Z,14.33
2019-01-13T10:42:59.819Z,14.48
2019-01-13T10:45:33.430Z,14.47
2019-01-13T10:48:23.321Z,14.42
2019-01-13T10:50:55.305Z,14.35
2019-01-13T10:56:27.083Z,14.32
2019-01-13T10:59:17.250Z,14.40
2019-01-13T11:01:48.367Z,14.45
2019-01-13T11:04:39.386Z,14.64
2019-01-13T11:07:10.465Z,14.74
2019-01-13T11:09:42.449Z,14.62
2019-01-13T11:15:21.468Z,14.70
2019-01-13T11:18:08.653Z,14.85
2019-01-13T11:20:40.616Z,14.77
2019-01-13T11:23:30.754Z,15.10
2019-01-13T11:26:01.914Z,15.14
2019-01-13T11:28:52.915Z,15.04
2019-01-13T11:31:26.087Z,15.22
2019-01-13T11:34:49.584Z,15.42
2019-01-13T11:37:13.965Z,15.22
2019-01-13T11:39:56.091Z,15.29
2019-01-13T11:45:23.741Z,15.35
2019-01-13T11:51:24.701Z,15.27
2019-01-13T11:54:16.036Z,15.18
2019-01-13T11:57:06.438Z,15.10
2019-01-13T11:59:50.372Z,15.26
2019-01-13T12:02:41.969Z,15.42
2019-01-13T12:08:28.262Z,15.49
2019-01-13T12:10:59.619Z,15.34
2019-01-13T12:13:33.857Z,15.57
2019-01-13T12:19:29.866Z,15.64
2019-01-13T12:22:21.529Z,15.86
2019-01-13T12:24:52.623Z,15.73
2019-01-13T12:27:44.805Z,15.73
2019-01-13T12:30:27.025Z,15.63
2019-01-13T12:32:58.432Z,15.59
2019-01-13T12:35:48.525Z,15.62
2019-01-13T12:38:52.939Z,15.56
2019-01-13T12:41:11.489Z,15.53
2019-01-13T12:43:42.681Z,15.48
2019-01-13T12:46:33.663Z,15.52
2019-01-13T12:49:05.641Z,15.38
2019-01-13T12:51:48.843Z,15.58
2019-01-13T13:00:16.079Z,15.48
2019-01-13T13:02:47.558Z,15.51
2019-01-13T13:05:50.852Z,15.47
2019-01-13T13:14:53.274Z,15.58
2019-01-13T13:17:36.183Z,15.48
2019-01-13T13:20:10.737Z,15.47
2019-01-13T13:23:00.847Z,15.57
2019-01-13T13:25:32.320Z,15.62
2019-01-13T13:28:23.734Z,15.50
2019-01-13T13:30:54.992Z,15.74
2019-01-13T13:33:57.436Z,15.96
2019-01-13T13:36:57.129Z,15.85
2019-01-13T13:39:47.224Z,15.82
2019-01-13T13:42:19.189Z,15.91
2019-01-13T13:45:22.077Z,15.76
2019-01-13T13:47:41.826Z,15.82
2019-01-13T13:50:15.090Z,15.99
2019-01-13T13:53:24.276Z,16.11
2019-01-13T13:55:55.378Z,16.11
2019-01-13T14:01:45.323Z,16.26
2019-01-13T14:04:58.645Z,16.48
2019-01-13T14:10:47.003Z,16.65
2019-01-13T14:13:20.617Z,16.78
2019-01-13T14:19:00.569Z,16.70
2019-01-13T14:21:50.690Z,16.67
2019-01-13T14:27:46.933Z,16.96
2019-01-13T14:33:53.006Z,17.17
2019-01-13T14:36:22.343Z,16.93
2019-01-13T14:39:12.765Z,16.39
2019-01-13T14:41:43.877Z,16.18
2019-01-13T14:47:50.819Z,16.19
2019-01-13T14:50:23.834Z,16.08
2019-01-13T14:52:55.186Z,15.56
2019-01-13T14:55:45.276Z,15.40
2019-01-13T14:58:35.400Z,15.53
2019-01-13T15:01:06.560Z,15.61
2019-01-13T15:03:37.755Z,15.58
2019-01-13T15:06:09.463Z,15.20
2019-01-13T15:08:59.569Z,15.23
2019-01-13T15:11:49.982Z,15.16
2019-01-13T15:14:21.187Z,15.28
2019-01-13T15:17:11.304Z,15.32
2019-01-13T15:25:28.671Z,14.84
2019-01-13T15:33:42.972Z,14.43
2019-01-13T15:39:16.361Z,14.90
2019-01-13T15:44:50.968Z,14.52
2019-01-13T15:47:22.099Z,14.80
2019-01-13T15:52:43.105Z,14.92
2019-01-13T15:55:15.090Z,14.67
2019-01-13T15:57:47.085Z,14.61
2019-01-13T16:00:22.659Z,15.07
2019-01-13T16:02:54.660Z,15.23
2019-01-13T16:05:25.749Z,15.01
2019-01-13T16:07:56.815Z,15.32
2019-01-13T16:10:30.425Z,15.53
2019-01-13T16:16:11.172Z,16.24
2019-01-13T16:18:42.262Z,16.05
2019-01-13T16:24:16.842Z,16.09
2019-01-13T16:26:48.269Z,16.15
2019-01-13T16:29:20.271Z,16.36
2019-01-13T16:31:52.198Z,16.29
2019-01-13T16:34:57.089Z,16.15
2019-01-13T16:37:18.746Z,16.29
2019-01-13T16:42:55.267Z,15.83
2019-01-13T16:45:30.396Z,16.00
2019-01-13T16:48:21.429Z,16.01
2019-01-13T16:50:52.585Z,16.22
2019-01-13T16:53:26.921Z,16.09
2019-01-13T16:55:59.274Z,16.34
2019-01-13T16:58:49.400Z,16.56
2019-01-13T17:01:40.370Z,16.69
2019-01-13T17:07:13.282Z,16.55
2019-01-13T17:09:44.401Z,16.33
2019-01-13T17:12:54.327Z,16.30
2019-01-13T17:15:45.056Z,16.51
2019-01-13T17:21:17.871Z,16.34
2019-01-13T17:23:49.981Z,16.28
2019-01-13T17:26:56.377Z,16.18
2019-01-13T17:29:36.417Z,16.21
2019-01-13T17:41:19.397Z,16.21
2019-01-13T17:46:45.657Z,16.11
2019-01-13T17:49:17.750Z,15.92
2019-01-13T17:51:50.013Z,15.86
2019-01-13T17:54:21.870Z,15.84
2019-01-13T18:00:41.514Z,16.04
2019-01-13T18:03:12.216Z,15.98
2019-01-13T18:06:21.345Z,15.96
2019-01-13T18:11:57.732Z,15.85
2019-01-13T18:14:29.747Z,15.74
2019-01-13T18:17:06.479Z,15.71
2019-01-13T18:19:38.161Z,15.79
2019-01-13T18:22:28.884Z,15.62
2019-01-13T18:25:00.646Z,15.60
2019-01-13T18:27:53.876Z,15.62
2019-01-13T18:30:28.904Z,15.47
2019-01-13T18:33:19.899Z,15.44
2019-01-13T18:35:52.853Z,15.55
2019-01-13T18:38:43.708Z,15.60
2019-01-13T18:44:44.923Z,15.58
2019-01-13T18:47:17.160Z,15.65
2019-01-13T18:49:50.798Z,15.68
2019-01-13T18:52:44.678Z,15.83
2019-01-13T18:55:27.936Z,15.87
2019-01-13T18:58:32.951Z,15.84
2019-01-13T19:01:31.343Z,15.91
2019-01-13T19:07:05.716Z,15.44
2019-01-13T19:09:38.412Z,15.29
2019-01-13T19:12:51.496Z,15.20
2019-01-13T19:15:42.536Z,15.23
2019-01-13T19:18:16.963Z,15.37
2019-01-13T19:20:49.147Z,15.43
2019-01-13T19:27:15.002Z,15.49
2019-01-13T19:35:23.539Z,15.85
2019-01-13T19:38:15.300Z,15.81
2019-01-13T19:40:47.584Z,15.82
2019-01-13T19:43:39.380Z,15.70
2019-01-13T19:49:26.829Z,15.64
2019-01-13T19:51:49.968Z,15.29
2019-01-13T19:54:40.824Z,15.11
2019-01-13T20:03:21.958Z,14.85
2019-01-13T20:06:13.363Z,14.53
2019-01-13T20:08:45.158Z,14.55
2019-01-13T20:11:39.636Z,14.44
2019-01-13T20:14:30.537Z,14.48
2019-01-13T20:17:31.029Z,14.39
2019-01-13T20:20:25.922Z,14.67
2019-01-13T20:23:16.555Z,15.00
2019-01-13T20:26:08.959Z,15.08
2019-01-13T20:29:14.443Z,14.99
2019-01-13T20:31:45.267Z,14.84
2019-01-13T20:34:19.816Z,14.79
2019-01-13T20:36:52.075Z,14.86
2019-01-13T20:40:06.919Z,14.77
2019-01-13T20:42:59.094Z,14.79
2019-01-13T20:45:50.166Z,14.92
2019-01-13T20:48:32.319Z,14.82
2019-01-13T20:54:16.918Z,14.67
2019-01-13T20:59:39.168Z,14.22
2019-01-13T21:02:50.850Z,13.84
2019-01-13T21:05:26.843Z,13.67
2019-01-13T21:08:16.407Z,13.61
2019-01-13T21:10:48.720Z,13.52
2019-01-13T21:16:24.517Z,12.84
2019-01-13T21:19:17.605Z,12.76
2019-01-13T21:25:12.798Z,12.89
2019-01-13T21:30:49.947Z,12.92
2019-01-13T21:33:22.856Z,13.03
2019-01-13T21:41:50.958Z,13.07
2019-01-13T21:47:32.671Z,12.85
2019-01-13T21:50:24.153Z,12.68
2019-01-13T21:56:19.083Z,13.01
2019-01-13T21:59:09.896Z,12.91
2019-01-13T22:02:00.723Z,13.00
2019-01-13T22:04:32.972Z,13.25
2019-01-13T22:07:05.207Z,13.41
2019-01-13T22:09:57.441Z,13.36
2019-01-13T22:12:30.088Z,13.27
2019-01-13T22:15:02.449Z,13.32
2019-01-13T22:20:41.308Z,13.29
2019-01-13T22:23:32.261Z,13.32
2019-01-13T22:26:04.318Z,13.44
2019-01-13T22:28:36.592Z,13.52
2019-01-13T22:33:53.336Z,13.46
2019-01-13T22:36:25.660Z,13.58
2019-01-13T22:39:30.208Z,13.61
2019-01-13T22:42:29.585Z,13.57
2019-01-13T22:48:12.227Z,13.31
2019-01-13T22:53:46.670Z,13.22
2019-01-13T22:56:18.973Z,13.32
2019-01-13T22:58:51.417Z,13.44
2019-01-13T23:04:55.934Z,13.44
2019-01-13T23:10:17.098Z,13.58
2019-01-13T23:13:03.329Z,13.36
2019-01-13T23:18:30.372Z,13.57
2019-01-13T23:21:32.355Z,13.74
2019-01-13T23:24:08.659Z,13.58
2019-01-13T23:27:01.780Z,13.15
2019-01-13T23:29:33.906Z,13.26
2019-01-13T23:32:05.990Z,13.41
2019-01-13T23:34:38.239Z,13.48
2019-01-13T23:37:10.483Z,13.34
2019-01-13T23:42:46.229Z,13.75
2019-01-13T23:48:21.129Z,13.90
2019-01-13T23:50:54.207Z,14.02
2019-01-13T23:53:26.551Z,13.86
2019-01-13T23:56:18.587Z,13.82
2019-01-13T23:58:50.678Z,14.05
